createdAt,value
2022-12-08T00:00:53.354Z,21.2
2022-12-08T00:05:53.337Z,21.2
2022-12-08T00:10:53.440Z,21.2
2022-12-08T00:15:53.360Z,21.4
2022-12-08T00:20:53.353Z,21.2
2022-12-08T00:25:53.404Z,21
2022-12-08T00:30:53.343Z,20.7
2022-12-08T00:35:53.365Z,20.4
2022-12-08T00:40:53.379Z,20.4
2022-12-08T00:45:53.423Z,20.4
2022-12-08T00:50:53.429Z,19.9
2022-12-08T00:55:53.443Z,18.9
2022-12-08T01:00:53.519Z,19.8
2022-12-08T01:05:53.361Z,18.9
2022-12-08T01:10:53.373Z,18.9
2022-12-08T01:17:29.150Z,18.8
2022-12-08T01:20:53.976Z,18.8
2022-12-08T01:25:53.522Z,18.7
2022-12-08T01:30:53.535Z,18.7
2022-12-08T01:35:53.433Z,18
2022-12-08T01:40:53.522Z,17.4
2022-12-08T01:45:53.588Z,17.4
2022-12-08T01:50:53.526Z,17.2
2022-12-08T01:55:53.505Z,17
2022-12-08T02:00:53.485Z,16.6
2022-12-08T02:05:53.389Z,16.6
2022-12-08T02:10:53.416Z,16.6
2022-12-08T02:15:53.484Z,16.2
2022-12-08T02:20:53.445Z,15.9
2022-12-08T02:25:53.435Z,15.8
2022-12-08T02:30:53.851Z,15.5
2022-12-08T02:35:53.499Z,15.4
2022-12-08T02:40:53.420Z,14.8
2022-12-08T02:45:53.570Z,14.6
2022-12-08T02:50:53.422Z,14.4
2022-12-08T02:55:53.537Z,14.1
2022-12-08T03:00:53.398Z,14.1
2022-12-08T03:05:53.405Z,14.4
2022-12-08T03:10:53.390Z,14.4
2022-12-08T03:15:53.464Z,14.3
2022-12-08T03:20:53.526Z,14.3
2022-12-08T03:25:53.406Z,14.3
2022-12-08T03:30:53.446Z,14.3
2022-12-08T03:35:53.435Z,14.3
2022-12-08T03:40:53.425Z,14.3
2022-12-08T03:45:53.413Z,14.9
2022-12-08T03:50:53.441Z,15.1
2022-12-08T03:55:53.528Z,15.6
2022-12-08T04:00:53.426Z,16
2022-12-08T04:05:53.540Z,16.2
2022-12-08T04:10:53.454Z,17.5
2022-12-08T04:15:53.515Z,17.9
2022-12-08T04:20:53.527Z,18
2022-12-08T04:35:53.634Z,20.2
2022-12-08T04:40:53.494Z,20.05
2022-12-08T04:45:53.482Z,20.2
2022-12-08T04:50:53.497Z,20.35
2022-12-08T04:55:53.387Z,20.2
2022-12-08T05:00:53.485Z,20.15
2022-12-08T05:05:53.562Z,20.1
2022-12-08T05:10:53.643Z,19.9
2022-12-08T05:15:53.538Z,20
2022-12-08T05:20:53.498Z,19.4
2022-12-08T05:25:53.443Z,19.4
2022-12-08T05:30:53.398Z,19.4
2022-12-08T05:35:53.502Z,19.7
2022-12-08T05:40:53.502Z,19.8
2022-12-08T05:45:53.494Z,20
2022-12-08T05:50:53.436Z,20
2022-12-08T05:55:53.508Z,20
2022-12-08T06:00:53.413Z,20
2022-12-08T06:05:53.541Z,20
2022-12-08T06:10:53.446Z,20
2022-12-08T06:15:53.434Z,20
2022-12-08T06:20:53.454Z,20
2022-12-08T06:25:53.409Z,20
2022-12-08T06:30:53.466Z,20.2
2022-12-08T06:35:53.479Z,20.2
2022-12-08T06:40:53.473Z,20.2
2022-12-08T06:45:53.485Z,20.2
2022-12-08T06:50:53.483Z,20
2022-12-08T06:55:59.999Z,20.4
2022-12-08T07:00:53.496Z,20
2022-12-08T07:05:53.442Z,20
2022-12-08T07:10:53.444Z,20
2022-12-08T07:15:53.409Z,20.3
2022-12-08T07:20:53.465Z,20.4
2022-12-08T07:25:53.610Z,20.5
2022-12-08T07:30:53.455Z,21.2
2022-12-08T07:35:53.527Z,21.2
2022-12-08T07:40:53.541Z,20.5
2022-12-08T07:45:53.505Z,20.5
2022-12-08T07:50:53.453Z,21.2
2022-12-08T07:55:53.499Z,20.7
2022-12-08T08:00:53.616Z,20.5
2022-12-08T08:05:53.455Z,20.2
2022-12-08T08:10:53.503Z,20.2
2022-12-08T08:15:53.772Z,20.1
2022-12-08T08:20:53.431Z,20.5
2022-12-08T08:25:53.549Z,20.1
2022-12-08T08:30:53.684Z,20.1
2022-12-08T08:35:53.559Z,19.8
2022-12-08T08:40:53.447Z,19.5
2022-12-08T08:45:53.519Z,19.4
2022-12-08T08:50:53.486Z,19.4
2022-12-08T08:55:53.520Z,18.8
2022-12-08T09:00:53.491Z,18.7
2022-12-08T09:05:53.512Z,18.6
2022-12-08T09:10:53.495Z,18
2022-12-08T09:15:53.515Z,17.9
2022-12-08T09:20:53.531Z,17.9
2022-12-08T09:25:53.566Z,17.9
2022-12-08T09:30:53.559Z,17.9
2022-12-08T09:35:53.599Z,17.7
2022-12-08T09:40:53.531Z,17.7
2022-12-08T09:45:53.491Z,17.8
2022-12-08T09:50:53.559Z,17.8
2022-12-08T09:55:53.505Z,17.4
2022-12-08T10:00:53.564Z,17.4
2022-12-08T10:05:53.441Z,17.2
2022-12-08T10:10:53.482Z,16.9
2022-12-08T10:15:53.513Z,16.9
2022-12-08T10:20:53.481Z,16.7
2022-12-08T10:25:53.505Z,16.6
2022-12-08T10:30:53.485Z,16.4
2022-12-08T10:35:53.578Z,15.9
2022-12-08T10:40:53.626Z,15.1
2022-12-08T10:45:53.489Z,14.6
2022-12-08T10:50:53.471Z,14.5
2022-12-08T10:55:53.509Z,14.4
2022-12-08T11:00:53.611Z,13.2
2022-12-08T11:05:53.836Z,13
2022-12-08T11:10:53.606Z,12.6
2022-12-08T11:15:53.567Z,11.7
2022-12-08T11:20:53.492Z,11.5
2022-12-08T11:25:53.529Z,11.5
2022-12-08T11:30:53.555Z,11.3
2022-12-08T11:35:53.654Z,11
2022-12-08T11:40:53.539Z,11
2022-12-08T11:45:53.570Z,10.9
2022-12-08T11:50:53.565Z,10.6
2022-12-08T11:55:53.513Z,10.6
2022-12-08T12:00:53.498Z,10.6
2022-12-08T12:06:18.474Z,10.6
2022-12-08T12:10:53.515Z,10.6
2022-12-08T12:15:53.487Z,10.4
2022-12-08T12:20:53.669Z,10.4
2022-12-08T12:25:53.512Z,10.4
2022-12-08T12:30:53.624Z,10.2
2022-12-08T12:35:53.588Z,10.2
2022-12-08T12:40:53.604Z,10.2
2022-12-08T12:45:53.567Z,10.4
2022-12-08T12:50:53.491Z,10.5
2022-12-08T12:55:53.521Z,10.8
2022-12-08T13:00:53.524Z,10.8
2022-12-08T13:05:53.508Z,11.1
2022-12-08T13:10:53.669Z,11.3
2022-12-08T13:15:53.603Z,11.3
2022-12-08T13:20:53.549Z,11.3
2022-12-08T13:25:53.631Z,11.1
2022-12-08T13:30:53.615Z,11
2022-12-08T13:35:53.569Z,11
2022-12-08T13:40:53.926Z,10.9
2022-12-08T13:46:52.776Z,10.7
2022-12-08T13:52:16.003Z,10.5
2022-12-08T13:56:51.967Z,10.5
2022-12-08T14:00:53.516Z,10.4
2022-12-08T14:06:11.968Z,10.3
2022-12-08T14:16:26.719Z,10.1
2022-12-08T14:25:53.617Z,10.9
2022-12-08T14:30:53.589Z,10.8
2022-12-08T14:35:53.526Z,10.7
2022-12-08T14:40:53.540Z,10.5
2022-12-08T14:45:53.612Z,10.7
2022-12-08T14:50:53.595Z,10.6
2022-12-08T14:55:53.612Z,10.6
2022-12-08T15:00:53.519Z,10.6
2022-12-08T15:05:53.538Z,10.6
2022-12-08T15:10:53.601Z,10.8
2022-12-08T15:15:53.558Z,11.3
2022-12-08T15:20:53.617Z,11.4
2022-12-08T15:25:53.800Z,11.4
2022-12-08T15:30:53.606Z,11.4
2022-12-08T15:35:53.571Z,11.3
2022-12-08T15:40:53.695Z,11.3
2022-12-08T15:46:00.339Z,11.4
2022-12-08T15:50:53.539Z,11.4
2022-12-08T15:56:26.159Z,14
2022-12-08T16:00:57.991Z,14.9
2022-12-08T16:06:20.417Z,15.1
2022-12-08T16:11:34.410Z,15.3
2022-12-08T16:16:00.604Z,15.6
2022-12-08T16:21:22.614Z,19.6
2022-12-08T16:26:20.690Z,24
2022-12-08T16:30:53.749Z,24
2022-12-08T16:35:53.592Z,24.9
2022-12-08T16:40:53.677Z,24.9
2022-12-08T16:45:53.809Z,24
2022-12-08T16:50:53.633Z,24
2022-12-08T16:55:53.607Z,23.7
2022-12-08T17:00:53.649Z,22.6
2022-12-08T17:05:53.771Z,22
2022-12-08T17:20:53.715Z,26.8
2022-12-08T17:25:53.664Z,21.95
2022-12-08T17:30:53.593Z,17.1
2022-12-08T17:35:53.711Z,18.55
2022-12-08T17:50:53.721Z,29
2022-12-08T17:55:53.738Z,26.1
2022-12-08T18:00:53.669Z,23.2
2022-12-08T18:05:53.599Z,26.1
2022-12-08T18:10:53.630Z,29
2022-12-08T18:15:53.617Z,26.1
2022-12-08T18:20:53.658Z,23.2
2022-12-08T18:25:53.622Z,22.3
2022-12-08T18:30:53.712Z,20.7
2022-12-08T18:35:53.722Z,20
2022-12-08T18:40:53.625Z,18.4
2022-12-08T18:46:14.182Z,17.3
2022-12-08T18:50:53.566Z,17.3
2022-12-08T18:55:53.654Z,17.3
2022-12-08T19:00:53.554Z,17.3
2022-12-08T19:05:53.590Z,21.4
2022-12-08T19:10:53.566Z,21.4
2022-12-08T19:15:53.752Z,21.4
2022-12-08T19:20:53.593Z,21.4
2022-12-08T19:25:53.656Z,18.9
2022-12-08T19:30:53.709Z,18.1
2022-12-08T19:35:54.660Z,18.1
2022-12-08T19:40:53.699Z,18.1
2022-12-08T19:46:11.345Z,18.9
2022-12-08T19:50:53.584Z,19.1
2022-12-08T19:55:53.591Z,19.2
2022-12-08T20:00:53.598Z,19.2
2022-12-08T20:05:53.577Z,19.2
2022-12-08T20:10:53.594Z,19.5
2022-12-08T20:15:53.674Z,19.9
2022-12-08T20:20:53.617Z,19.9
2022-12-08T20:25:53.610Z,19.9
2022-12-08T20:30:53.664Z,20.4
2022-12-08T20:35:59.774Z,21
2022-12-08T20:40:53.598Z,71.4
2022-12-08T20:46:11.506Z,71.4
2022-12-08T20:50:53.670Z,71.4
2022-12-08T20:55:53.661Z,71.4
2022-12-08T21:00:53.793Z,22.7
2022-12-08T21:05:53.611Z,19.3
2022-12-08T21:10:53.596Z,19.3
2022-12-08T21:15:53.824Z,19.3
2022-12-08T21:20:53.792Z,19.3
2022-12-08T21:25:53.652Z,67.5
2022-12-08T21:30:53.693Z,119.7
2022-12-08T21:35:53.730Z,119.7
2022-12-08T21:40:53.665Z,119.7
2022-12-08T21:46:12.938Z,67.5
2022-12-08T21:50:53.790Z,25.7
2022-12-08T21:55:53.732Z,25.7
2022-12-08T22:00:53.645Z,25.7
2022-12-08T22:05:53.737Z,25.7
2022-12-08T22:10:53.745Z,25.7
2022-12-08T22:15:53.630Z,25.7
2022-12-08T22:20:53.728Z,25.7
2022-12-08T22:25:53.617Z,23.7
2022-12-08T22:30:53.800Z,19.5
2022-12-08T22:35:53.596Z,17.7
2022-12-08T22:40:53.745Z,17.6
2022-12-08T22:46:15.721Z,16.5
2022-12-08T22:50:53.847Z,16.5
2022-12-08T22:55:53.782Z,16.5
2022-12-08T23:00:53.817Z,16.4
2022-12-08T23:05:54.002Z,16.3
2022-12-08T23:10:53.838Z,15.9
2022-12-08T23:15:53.621Z,15.9
2022-12-08T23:20:53.664Z,16.2
2022-12-08T23:25:53.815Z,16.2
2022-12-08T23:30:53.603Z,15.9
2022-12-08T23:35:53.679Z,15.7
2022-12-08T23:40:53.698Z,16.2
2022-12-08T23:46:14.393Z,16.2
2022-12-08T23:50:53.649Z,15.8
2022-12-08T23:55:53.723Z,15.8
